Terminal Aerodrome Forecast
Issued by NWS

Home | Current Version | Previous Version | Text Only | Print | Product List | Glossary On
Versions: 1 2 3 4 5 6 7 8 9 10 11 12 13 14 15 16 17 18 19 20 21 22 23 24 25
000
FTUS44 KFWD 171000 AAB
TAFFTW
TAF AMD
KFTW 171006Z 1710/1806 12009KT P6SM BKN250
     FM171100 12009KT P6SM OVC015
     FM171700 12009KT P6SM VCSH BKN025 OVC050
     FM180300 09006KT P6SM OVC015=

USA.gov is the U.S. government's official web portal to all federal, state and local government web resources and services.